Blake Denton — WDC7496 — position and weather

sailwx.info

Track history (hours):
 
Tides and Currents Weather Stations Pressure Air Temp Water Temp Dewpoint Dewpoint Depression Visibility Wind Speed Wind Dir Waves Ship Positions

Blake Denton

Owner: Marquette Transportation, Paducah, KY. More information available from US FCC via Universal Licensing System and Coast Guard Vessel Documentation Center.

Last reported at 2014-Oct-10 01:33 UTC. Time now 2014-Oct-21 08:59 UTC.
Position N 30°03' W 090°39'.
Warning: this ship's position is 11 days out of date.

Length 52 m.

Type: Towing. MMSI: 367072210.

Date/timePositionNaut miles runAvg speedWind from/ knotsBaromVisibWave heightAir tempDewpointWater temp
2014-Oct-10 01:33N 30°03' W 090°39'5 5.3
2014-Oct-10 00:33N 30°03' W 090°33'4 0.4
2014-Oct-09 14:21N 30°03' W 090°28'0 0.0
2014-Oct-09 12:33N 30°03' W 090°28'0 0.1
2014-Oct-09 11:33N 30°03' W 090°28'0 0.1
2014-Oct-09 10:33N 30°02' W 090°28'0 0.0
2014-Oct-09 09:33N 30°02' W 090°28'0 0.0
2014-Oct-09 08:33N 30°02' W 090°28'0 0.0
2014-Oct-09 07:33N 30°02' W 090°28'0 0.0
2014-Oct-09 06:33N 30°02' W 090°28'0 0.0
2014-Oct-09 05:32N 30°02' W 090°28'0 0.0
2014-Oct-09 04:32N 30°02' W 090°28'0 0.0
2014-Oct-09 03:33N 30°02' W 090°28'0 0.0
2014-Oct-09 02:32N 30°02' W 090°28'0 0.0
2014-Oct-09 01:32N 30°02' W 090°28'0 0.0
2014-Oct-09 00:33N 30°03' W 090°28'0 0.2
2014-Oct-08 23:33N 30°03' W 090°28'0 0.0
2014-Oct-08 22:33N 30°03' W 090°28'13 1.1
2014-Oct-08 10:22N 29°58' W 090°15'0 0.0
2014-Oct-08 08:22N 29°58' W 090°15'0 0.1
2014-Oct-08 06:16N 29°58' W 090°14'0 0.5
2014-Oct-08 05:33N 29°58' W 090°15'5 5.5
2014-Oct-08 04:33N 29°56' W 090°21'0 0.0
2014-Oct-08 03:33N 29°56' W 090°21'0 0.0
2014-Oct-08 02:33N 29°56' W 090°21'9 1.5
2014-Oct-07 20:32N 30°02' W 090°28'0 0.0
2014-Oct-07 19:34N 30°02' W 090°28'0 0.0
2014-Oct-07 18:33N 30°02' W 090°28'0 0.0
2014-Oct-07 17:33N 30°02' W 090°28'0 0.0
2014-Oct-07 16:33N 30°02' W 090°28'0 0.0
2014-Oct-07 15:26N 30°02' W 090°28'0 0.2
2014-Oct-07 14:29N 30°02' W 090°28'5 5.6
2014-Oct-07 13:33N 30°03' W 090°34'6 5.6
2014-Oct-07 12:27N 30°02' W 090°41'6 6.1
2014-Oct-07 11:33N 30°00' W 090°47'5 3.9
2014-Oct-07 10:18N 30°04' W 090°51'0 0.2
2014-Oct-07 09:27N 30°04' W 090°51'0 0.0
2014-Oct-07 06:33N 30°04' W 090°51'0 0.0
2014-Oct-07 01:32N 30°04' W 090°51'  
Track history (hours):
 
Tides and Currents Weather Stations Pressure Air Temp Water Temp Dewpoint Dewpoint Depression Visibility Wind Speed Wind Dir Waves Ship Positions

Blake Denton

Owner: Marquette Transportation, Paducah, KY. More information available from US FCC via Universal Licensing System and Coast Guard Vessel Documentation Center.

Last reported at 2014-Oct-10 01:33 UTC. Time now 2014-Oct-21 08:59 UTC.
Position N 30°03' W 090°39'.
Warning: this ship's position is 11 days out of date.

Length 52 m.

Type: Towing. MMSI: 367072210.

Date/timePositionNaut miles runAvg speedWind from/ knotsBaromVisibWave heightAir tempDewpointWater temp
2014-Oct-10 01:33N 30°03' W 090°39'5 5.3
2014-Oct-10 00:33N 30°03' W 090°33'4 0.4
2014-Oct-09 14:21N 30°03' W 090°28'0 0.0
2014-Oct-09 12:33N 30°03' W 090°28'0 0.1
2014-Oct-09 11:33N 30°03' W 090°28'0 0.1
2014-Oct-09 10:33N 30°02' W 090°28'0 0.0
2014-Oct-09 09:33N 30°02' W 090°28'0 0.0
2014-Oct-09 08:33N 30°02' W 090°28'0 0.0
2014-Oct-09 07:33N 30°02' W 090°28'0 0.0
2014-Oct-09 06:33N 30°02' W 090°28'0 0.0
2014-Oct-09 05:32N 30°02' W 090°28'0 0.0
2014-Oct-09 04:32N 30°02' W 090°28'0 0.0
2014-Oct-09 03:33N 30°02' W 090°28'0 0.0
2014-Oct-09 02:32N 30°02' W 090°28'0 0.0
2014-Oct-09 01:32N 30°02' W 090°28'0 0.0
2014-Oct-09 00:33N 30°03' W 090°28'0 0.2
2014-Oct-08 23:33N 30°03' W 090°28'0 0.0
2014-Oct-08 22:33N 30°03' W 090°28'13 1.1
2014-Oct-08 10:22N 29°58' W 090°15'0 0.0
2014-Oct-08 08:22N 29°58' W 090°15'0 0.1
2014-Oct-08 06:16N 29°58' W 090°14'0 0.5
2014-Oct-08 05:33N 29°58' W 090°15'5 5.5
2014-Oct-08 04:33N 29°56' W 090°21'0 0.0
2014-Oct-08 03:33N 29°56' W 090°21'0 0.0
2014-Oct-08 02:33N 29°56' W 090°21'9 1.5
2014-Oct-07 20:32N 30°02' W 090°28'0 0.0
2014-Oct-07 19:34N 30°02' W 090°28'0 0.0
2014-Oct-07 18:33N 30°02' W 090°28'0 0.0
2014-Oct-07 17:33N 30°02' W 090°28'0 0.0
2014-Oct-07 16:33N 30°02' W 090°28'0 0.0
2014-Oct-07 15:26N 30°02' W 090°28'0 0.2
2014-Oct-07 14:29N 30°02' W 090°28'5 5.6
2014-Oct-07 13:33N 30°03' W 090°34'6 5.6
2014-Oct-07 12:27N 30°02' W 090°41'6 6.1
2014-Oct-07 11:33N 30°00' W 090°47'5 3.9
2014-Oct-07 10:18N 30°04' W 090°51'0 0.2
2014-Oct-07 09:27N 30°04' W 090°51'0 0.0
2014-Oct-07 06:33N 30°04' W 090°51'0 0.0
2014-Oct-07 01:32N 30°04' W 090°51'  

Dump ship's entire track history